Rosewood, Texas
Current Conditions -  °F | °C
As of 4:15 AM on Thursday 29 Jan 2015 (Local Time) from KJXI Reporting Station
Scattered Clouds Scattered Clouds  
Wind Chill: 56°   Ceiling: Unl
Heat Index: 56°   Visibility: 10mi
Dew Point: 45°   Wind: 7mph
Humidity: 65%   Direction: 190°S
Pressure: 30.09"   Gusts: NA
Location:  32.7353°N, 94.9492°W
Report Text: KJXI 291015Z AUTO 19006KT 10SM SCT110 13/07 A3009 RMK AO2 T01340070
Loading
Personal Weather Stations






























Interactive Weather Map New forecast layout! Learn more

10-Day Weather Forecast

Advertisements
Track Severe Weather on mobile